Terminal Aerodrome Forecast
Issued by NWS Wilmington, NC

Home | Current Version | Previous Version | Text Only | Print | Product List | Glossary On
Versions: 1 2 3 4 5 6 7 8 9 10 11 12 13 14 15 16 17 18 19 20 21 22 23 24 25
000
FTUS42 KILM 230025 CCB
TAFLBT
TAF COR
KLBT 230025Z 2300/2324 20007KT 6SM -SHRA VCTS SCT030CB OVC060
      TEMPO 2300/2302 4SM +SHRA BKN030
     FM230700 14005KT P6SM SCT015 OVC040
      TEMPO 2307/2308 4SM SHRA BKN015
     FM230900 14006KT P6SM SHRA OVC008
     FM231300 20007KT P6SM -SHRA VCTS OVC025CB
     FM231900 21008KT P6SM -SHRA VCTS OVC015CB=

USA.gov is the U.S. government's official web portal to all federal, state and local government web resources and services.